sensor_id;sensor_type;location;lat;lon;timestamp;temperature;humidity
52963;DHT22;38827;53.024;6.596;2023-02-13T00:12:17;8.40;75.60
52963;DHT22;38827;53.024;6.596;2023-02-13T00:15:02;8.30;76.10
52963;DHT22;38827;53.024;6.596;2023-02-13T00:21:19;8.30;76.10
52963;DHT22;38827;53.024;6.596;2023-02-13T00:29:59;8.40;76.10
52963;DHT22;38827;53.024;6.596;2023-02-13T00:32:44;8.40;76.30
52963;DHT22;38827;53.024;6.596;2023-02-13T01:08:06;8.10;75.70
52963;DHT22;38827;53.024;6.596;2023-02-13T01:18:06;8.10;75.60
52963;DHT22;38827;53.024;6.596;2023-02-13T01:21:14;8.00;75.70
52963;DHT22;38827;53.024;6.596;2023-02-13T01:28:14;8.00;75.40
52963;DHT22;38827;53.024;6.596;2023-02-13T01:34:07;7.90;75.50
52963;DHT22;38827;53.024;6.596;2023-02-13T01:36:33;7.90;75.60
52963;DHT22;38827;53.024;6.596;2023-02-13T01:38:59;7.90;75.70
52963;DHT22;38827;53.024;6.596;2023-02-13T01:41:28;7.90;75.80
52963;DHT22;38827;53.024;6.596;2023-02-13T01:47:59;7.90;75.80
52963;DHT22;38827;53.024;6.596;2023-02-13T01:57:00;8.00;75.90
52963;DHT22;38827;53.024;6.596;2023-02-13T01:59:50;8.00;76.10
52963;DHT22;38827;53.024;6.596;2023-02-13T02:03:04;8.00;75.90
52963;DHT22;38827;53.024;6.596;2023-02-13T02:15:45;8.10;75.70
52963;DHT22;38827;53.024;6.596;2023-02-13T02:18:26;8.10;75.80
52963;DHT22;38827;53.024;6.596;2023-02-13T02:37:51;8.20;75.50
52963;DHT22;38827;53.024;6.596;2023-02-13T02:59:01;8.10;75.60
52963;DHT22;38827;53.024;6.596;2023-02-13T03:02:05;8.10;75.80
52963;DHT22;38827;53.024;6.596;2023-02-13T03:22:27;7.90;76.10
52963;DHT22;38827;53.024;6.596;2023-02-13T03:27:46;8.00;76.20
52963;DHT22;38827;53.024;6.596;2023-02-13T03:30:49;7.90;75.90
52963;DHT22;38827;53.024;6.596;2023-02-13T03:33:40;7.90;76.20
52963;DHT22;38827;53.024;6.596;2023-02-13T03:36:24;7.90;76.30
52963;DHT22;38827;53.024;6.596;2023-02-13T03:42:17;7.90;76.20
52963;DHT22;38827;53.024;6.596;2023-02-13T03:54:47;7.90;76.20
52963;DHT22;38827;53.024;6.596;2023-02-13T04:07:32;7.90;76.00
52963;DHT22;38827;53.024;6.596;2023-02-13T04:43:13;7.90;76.70
52963;DHT22;38827;53.024;6.596;2023-02-13T04:45:51;7.90;76.80
52963;DHT22;38827;53.024;6.596;2023-02-13T05:01:51;7.90;77.00
52963;DHT22;38827;53.024;6.596;2023-02-13T05:06:56;7.90;77.10
52963;DHT22;38827;53.024;6.596;2023-02-13T05:13:00;7.90;77.20
52963;DHT22;38827;53.024;6.596;2023-02-13T05:15:51;7.90;77.70
52963;DHT22;38827;53.024;6.596;2023-02-13T05:18:26;7.90;77.40
52963;DHT22;38827;53.024;6.596;2023-02-13T05:20:52;7.90;77.50
52963;DHT22;38827;53.024;6.596;2023-02-13T05:27:31;7.90;77.50
52963;DHT22;38827;53.024;6.596;2023-02-13T05:33:26;7.90;77.70
52963;DHT22;38827;53.024;6.596;2023-02-13T05:38:31;7.90;77.90
52963;DHT22;38827;53.024;6.596;2023-02-13T05:41:42;7.80;78.00
52963;DHT22;38827;53.024;6.596;2023-02-13T06:10:49;7.70;78.60
52963;DHT22;38827;53.024;6.596;2023-02-13T06:13:23;7.70;78.60
52963;DHT22;38827;53.024;6.596;2023-02-13T06:15:49;7.70;78.70
52963;DHT22;38827;53.024;6.596;2023-02-13T06:18:33;7.70;78.70
52963;DHT22;38827;53.024;6.596;2023-02-13T06:21:00;7.80;78.60
52963;DHT22;38827;53.024;6.596;2023-02-13T06:23:26;7.80;78.90
52963;DHT22;38827;53.024;6.596;2023-02-13T06:25:54;7.80;78.80
52963;DHT22;38827;53.024;6.596;2023-02-13T06:28:19;7.80;78.80
52963;DHT22;38827;53.024;6.596;2023-02-13T06:30:48;7.80;78.80
52963;DHT22;38827;53.024;6.596;2023-02-13T06:33:14;7.80;78.70
52963;DHT22;38827;53.024;6.596;2023-02-13T06:35:39;7.80;78.80
52963;DHT22;38827;53.024;6.596;2023-02-13T06:38:07;7.80;78.90
52963;DHT22;38827;53.024;6.596;2023-02-13T06:45:48;7.80;79.00
52963;DHT22;38827;53.024;6.596;2023-02-13T06:48:16;7.70;79.10
52963;DHT22;38827;53.024;6.596;2023-02-13T06:50:52;7.80;79.20
52963;DHT22;38827;53.024;6.596;2023-02-13T06:53:28;7.80;79.30
52963;DHT22;38827;53.024;6.596;2023-02-13T06:56:17;7.70;79.30
52963;DHT22;38827;53.024;6.596;2023-02-13T06:58:43;7.70;79.40
52963;DHT22;38827;53.024;6.596;2023-02-13T07:01:13;7.70;79.50
52963;DHT22;38827;53.024;6.596;2023-02-13T07:03:38;7.70;79.60
52963;DHT22;38827;53.024;6.596;2023-02-13T07:06:19;7.70;79.60
52963;DHT22;38827;53.024;6.596;2023-02-13T07:08:46;7.80;79.50
52963;DHT22;38827;53.024;6.596;2023-02-13T07:11:16;7.70;79.50
52963;DHT22;38827;53.024;6.596;2023-02-13T07:13:41;7.70;79.10
52963;DHT22;38827;53.024;6.596;2023-02-13T07:16:07;7.70;79.60
52963;DHT22;38827;53.024;6.596;2023-02-13T07:18:33;7.70;79.50
52963;DHT22;38827;53.024;6.596;2023-02-13T07:20:59;7.70;79.50
52963;DHT22;38827;53.024;6.596;2023-02-13T07:23:24;7.70;79.50
52963;DHT22;38827;53.024;6.596;2023-02-13T07:25:50;7.70;79.60
52963;DHT22;38827;53.024;6.596;2023-02-13T07:28:15;7.70;79.80
52963;DHT22;38827;53.024;6.596;2023-02-13T07:30:41;7.70;79.90
52963;DHT22;38827;53.024;6.596;2023-02-13T07:33:08;7.70;80.00
52963;DHT22;38827;53.024;6.596;2023-02-13T07:35:33;7.70;80.00
52963;DHT22;38827;53.024;6.596;2023-02-13T07:38:05;7.70;80.00
52963;DHT22;38827;53.024;6.596;2023-02-13T07:40:44;7.70;79.90
52963;DHT22;38827;53.024;6.596;2023-02-13T07:43:41;7.80;79.60
52963;DHT22;38827;53.024;6.596;2023-02-13T08:00:30;7.70;79.60
52963;DHT22;38827;53.024;6.596;2023-02-13T08:07:02;7.80;79.30
52963;DHT22;38827;53.024;6.596;2023-02-13T08:20:31;7.80;79.30
52963;DHT22;38827;53.024;6.596;2023-02-13T08:28:56;7.90;79.70
52963;DHT22;38827;53.024;6.596;2023-02-13T08:43:05;8.10;79.50
52963;DHT22;38827;53.024;6.596;2023-02-13T08:45:37;8.10;79.50
52963;DHT22;38827;53.024;6.596;2023-02-13T08:51:13;8.10;79.20
52963;DHT22;38827;53.024;6.596;2023-02-13T08:53:41;8.20;79.30
52963;DHT22;38827;53.024;6.596;2023-02-13T08:56:19;8.20;79.30
52963;DHT22;38827;53.024;6.596;2023-02-13T09:01:30;8.20;79.30
52963;DHT22;38827;53.024;6.596;2023-02-13T09:13:46;8.30;79.30
52963;DHT22;38827;53.024;6.596;2023-02-13T09:23:37;8.40;79.10
52963;DHT22;38827;53.024;6.596;2023-02-13T09:30:12;8.40;79.10
52963;DHT22;38827;53.024;6.596;2023-02-13T09:33:29;8.50;79.00
52963;DHT22;38827;53.024;6.596;2023-02-13T09:39:34;8.50;79.00
52963;DHT22;38827;53.024;6.596;2023-02-13T09:45:45;8.60;78.70
52963;DHT22;38827;53.024;6.596;2023-02-13T09:48:58;8.60;78.40
52963;DHT22;38827;53.024;6.596;2023-02-13T13:58:46;10.90;70.30
52963;DHT22;38827;53.024;6.596;2023-02-13T14:01:28;10.90;70.60
52963;DHT22;38827;53.024;6.596;2023-02-13T14:04:37;11.00;70.50
52963;DHT22;38827;53.024;6.596;2023-02-13T14:23:57;10.80;69.90
52963;DHT22;38827;53.024;6.596;2023-02-13T15:11:43;10.90;69.10
52963;DHT22;38827;53.024;6.596;2023-02-13T15:21:28;12.10;67.20
52963;DHT22;38827;53.024;6.596;2023-02-13T15:29:18;13.30;63.00
52963;DHT22;38827;53.024;6.596;2023-02-13T15:39:31;13.20;60.80
52963;DHT22;38827;53.024;6.596;2023-02-13T15:42:15;12.90;61.10
52963;DHT22;38827;53.024;6.596;2023-02-13T15:58:52;11.20;64.10
52963;DHT22;38827;53.024;6.596;2023-02-13T16:02:27;10.90;64.70
52963;DHT22;38827;53.024;6.596;2023-02-13T16:33:33;9.50;68.20
52963;DHT22;38827;53.024;6.596;2023-02-13T16:38:56;9.30;69.30
52963;DHT22;38827;53.024;6.596;2023-02-13T17:07:50;8.20;72.60
52963;DHT22;38827;53.024;6.596;2023-02-13T17:11:21;8.10;72.80
52963;DHT22;38827;53.024;6.596;2023-02-13T17:14:05;8.00;73.00
52963;DHT22;38827;53.024;6.596;2023-02-13T17:16:31;7.90;73.40
52963;DHT22;38827;53.024;6.596;2023-02-13T17:19:15;7.90;73.70
52963;DHT22;38827;53.024;6.596;2023-02-13T17:21:59;7.80;73.80
52963;DHT22;38827;53.024;6.596;2023-02-13T17:24:25;7.80;74.10
52963;DHT22;38827;53.024;6.596;2023-02-13T17:26:57;7.70;74.40
52963;DHT22;38827;53.024;6.596;2023-02-13T17:29:25;7.70;74.60
52963;DHT22;38827;53.024;6.596;2023-02-13T17:31:54;7.60;74.90
52963;DHT22;38827;53.024;6.596;2023-02-13T17:34:20;7.60;75.10
52963;DHT22;38827;53.024;6.596;2023-02-13T17:36:46;7.50;75.20
52963;DHT22;38827;53.024;6.596;2023-02-13T17:39:12;7.50;75.30
52963;DHT22;38827;53.024;6.596;2023-02-13T17:41:37;7.40;75.50
52963;DHT22;38827;53.024;6.596;2023-02-13T17:44:11;7.40;75.50
52963;DHT22;38827;53.024;6.596;2023-02-13T17:46:42;7.30;75.60
52963;DHT22;38827;53.024;6.596;2023-02-13T17:49:09;7.20;75.80
52963;DHT22;38827;53.024;6.596;2023-02-13T17:51:40;7.20;75.90
52963;DHT22;38827;53.024;6.596;2023-02-13T17:54:08;7.10;76.20
52963;DHT22;38827;53.024;6.596;2023-02-13T17:56:38;7.10;76.20
52963;DHT22;38827;53.024;6.596;2023-02-13T17:59:06;7.00;76.30
52963;DHT22;38827;53.024;6.596;2023-02-13T18:01:32;7.00;76.30
52963;DHT22;38827;53.024;6.596;2023-02-13T18:03:58;6.90;76.50
52963;DHT22;38827;53.024;6.596;2023-02-13T18:06:25;6.90;76.70
52963;DHT22;38827;53.024;6.596;2023-02-13T18:08:52;6.80;76.90
52963;DHT22;38827;53.024;6.596;2023-02-13T18:11:17;6.80;77.10
52963;DHT22;38827;53.024;6.596;2023-02-13T18:13:43;6.80;77.20
52963;DHT22;38827;53.024;6.596;2023-02-13T18:16:18;6.70;77.30
52963;DHT22;38827;53.024;6.596;2023-02-13T18:18:43;6.70;77.50
52963;DHT22;38827;53.024;6.596;2023-02-13T18:21:09;6.60;77.70
52963;DHT22;38827;53.024;6.596;2023-02-13T18:23:35;6.60;77.80
52963;DHT22;38827;53.024;6.596;2023-02-13T18:26:08;6.50;77.80
52963;DHT22;38827;53.024;6.596;2023-02-13T18:28:40;6.50;78.00
52963;DHT22;38827;53.024;6.596;2023-02-13T18:31:08;6.40;78.00
52963;DHT22;38827;53.024;6.596;2023-02-13T18:33:34;6.40;78.10
52963;DHT22;38827;53.024;6.596;2023-02-13T18:36:01;6.30;78.20
52963;DHT22;38827;53.024;6.596;2023-02-13T18:38:27;6.30;78.30
52963;DHT22;38827;53.024;6.596;2023-02-13T18:40:53;6.20;78.50
52963;DHT22;38827;53.024;6.596;2023-02-13T18:43:31;6.20;78.40
52963;DHT22;38827;53.024;6.596;2023-02-13T18:45:57;6.10;78.40
52963;DHT22;38827;53.024;6.596;2023-02-13T18:48:23;6.10;78.60
52963;DHT22;38827;53.024;6.596;2023-02-13T18:50:48;6.00;78.70
52963;DHT22;38827;53.024;6.596;2023-02-13T18:53:17;6.00;78.90
52963;DHT22;38827;53.024;6.596;2023-02-13T18:55:48;6.00;79.00
52963;DHT22;38827;53.024;6.596;2023-02-13T18:58:14;5.90;79.10
52963;DHT22;38827;53.024;6.596;2023-02-13T19:00:47;5.90;79.30
52963;DHT22;38827;53.024;6.596;2023-02-13T19:03:21;5.90;79.50
52963;DHT22;38827;53.024;6.596;2023-02-13T19:05:50;5.80;79.70
52963;DHT22;38827;53.024;6.596;2023-02-13T19:08:21;5.80;79.80
52963;DHT22;38827;53.024;6.596;2023-02-13T19:11:24;5.80;80.00
52963;DHT22;38827;53.024;6.596;2023-02-13T19:14:02;5.70;80.00
52963;DHT22;38827;53.024;6.596;2023-02-13T19:16:29;5.70;80.10
52963;DHT22;38827;53.024;6.596;2023-02-13T19:18:59;5.70;80.20
52963;DHT22;38827;53.024;6.596;2023-02-13T19:21:27;5.70;80.40
52963;DHT22;38827;53.024;6.596;2023-02-13T19:23:53;5.60;80.40
52963;DHT22;38827;53.024;6.596;2023-02-13T19:26:21;5.60;80.60
52963;DHT22;38827;53.024;6.596;2023-02-13T19:28:48;5.60;80.60
52963;DHT22;38827;53.024;6.596;2023-02-13T19:31:35;5.60;80.70
52963;DHT22;38827;53.024;6.596;2023-02-13T19:34:02;5.60;80.90
52963;DHT22;38827;53.024;6.596;2023-02-13T19:36:30;5.60;80.90
52963;DHT22;38827;53.024;6.596;2023-02-13T19:38:58;5.60;81.00
52963;DHT22;38827;53.024;6.596;2023-02-13T19:41:25;5.60;81.10
52963;DHT22;38827;53.024;6.596;2023-02-13T19:43:59;5.50;81.20
52963;DHT22;38827;53.024;6.596;2023-02-13T19:46:30;5.50;81.40
52963;DHT22;38827;53.024;6.596;2023-02-13T19:49:00;5.50;81.60
52963;DHT22;38827;53.024;6.596;2023-02-13T19:51:31;5.50;81.70
52963;DHT22;38827;53.024;6.596;2023-02-13T19:57:23;5.50;81.60
52963;DHT22;38827;53.024;6.596;2023-02-13T19:59:49;5.40;81.70
52963;DHT22;38827;53.024;6.596;2023-02-13T20:02:15;5.40;81.80
52963;DHT22;38827;53.024;6.596;2023-02-13T20:04:42;5.30;82.00
52963;DHT22;38827;53.024;6.596;2023-02-13T20:07:07;5.30;81.90
52963;DHT22;38827;53.024;6.596;2023-02-13T20:09:36;5.30;82.10
52963;DHT22;38827;53.024;6.596;2023-02-13T20:12:05;5.20;82.30
52963;DHT22;38827;53.024;6.596;2023-02-13T20:14:31;5.20;82.40
52963;DHT22;38827;53.024;6.596;2023-02-13T20:16:58;5.20;82.30
52963;DHT22;38827;53.024;6.596;2023-02-13T20:19:24;5.20;82.40
52963;DHT22;38827;53.024;6.596;2023-02-13T20:21:50;5.10;82.40
52963;DHT22;38827;53.024;6.596;2023-02-13T20:24:15;5.10;82.60
52963;DHT22;38827;53.024;6.596;2023-02-13T20:26:45;5.10;82.60
52963;DHT22;38827;53.024;6.596;2023-02-13T20:29:11;5.10;82.90
52963;DHT22;38827;53.024;6.596;2023-02-13T20:31:37;5.00;82.80
52963;DHT22;38827;53.024;6.596;2023-02-13T20:34:08;5.00;82.80
52963;DHT22;38827;53.024;6.596;2023-02-13T20:36:42;5.00;82.90
52963;DHT22;38827;53.024;6.596;2023-02-13T20:39:08;5.00;83.00
52963;DHT22;38827;53.024;6.596;2023-02-13T20:41:38;5.00;83.00
52963;DHT22;38827;53.024;6.596;2023-02-13T20:44:07;4.90;83.00
52963;DHT22;38827;53.024;6.596;2023-02-13T20:46:36;4.90;83.10
52963;DHT22;38827;53.024;6.596;2023-02-13T20:49:03;4.90;83.20
52963;DHT22;38827;53.024;6.596;2023-02-13T20:51:29;4.90;83.30
52963;DHT22;38827;53.024;6.596;2023-02-13T20:53:54;4.90;83.20
52963;DHT22;38827;53.024;6.596;2023-02-13T20:56:22;4.90;83.20
52963;DHT22;38827;53.024;6.596;2023-02-13T20:58:50;4.90;83.10
52963;DHT22;38827;53.024;6.596;2023-02-13T21:01:35;4.80;83.10
52963;DHT22;38827;53.024;6.596;2023-02-13T21:04:05;4.80;83.00
52963;DHT22;38827;53.024;6.596;2023-02-13T21:06:36;4.70;83.10
52963;DHT22;38827;53.024;6.596;2023-02-13T21:09:03;4.70;83.20
52963;DHT22;38827;53.024;6.596;2023-02-13T21:11:31;4.60;83.30
52963;DHT22;38827;53.024;6.596;2023-02-13T21:14:00;4.60;83.30
52963;DHT22;38827;53.024;6.596;2023-02-13T21:16:29;4.50;83.30
52963;DHT22;38827;53.024;6.596;2023-02-13T21:18:58;4.50;83.40
52963;DHT22;38827;53.024;6.596;2023-02-13T21:21:33;4.50;83.60
52963;DHT22;38827;53.024;6.596;2023-02-13T21:24:06;4.50;83.80
52963;DHT22;38827;53.024;6.596;2023-02-13T21:26:32;4.40;83.80
52963;DHT22;38827;53.024;6.596;2023-02-13T21:28:59;4.40;83.80
52963;DHT22;38827;53.024;6.596;2023-02-13T21:31:28;4.40;83.90
52963;DHT22;38827;53.024;6.596;2023-02-13T21:34:03;4.40;83.90
52963;DHT22;38827;53.024;6.596;2023-02-13T21:36:30;4.50;83.90
52963;DHT22;38827;53.024;6.596;2023-02-13T21:38:56;4.40;83.90
52963;DHT22;38827;53.024;6.596;2023-02-13T21:41:22;4.40;84.00
52963;DHT22;38827;53.024;6.596;2023-02-13T21:43:49;4.40;84.00
52963;DHT22;38827;53.024;6.596;2023-02-13T21:46:33;4.40;84.10
52963;DHT22;38827;53.024;6.596;2023-02-13T21:49:01;4.40;83.70
52963;DHT22;38827;53.024;6.596;2023-02-13T21:51:30;4.30;83.90
52963;DHT22;38827;53.024;6.596;2023-02-13T21:53:56;4.30;83.90
52963;DHT22;38827;53.024;6.596;2023-02-13T21:56:24;4.30;83.80
52963;DHT22;38827;53.024;6.596;2023-02-13T21:58:55;4.30;83.80
52963;DHT22;38827;53.024;6.596;2023-02-13T22:05:14;4.20;83.80
52963;DHT22;38827;53.024;6.596;2023-02-13T22:11:12;4.00;83.80
52963;DHT22;38827;53.024;6.596;2023-02-13T22:13:47;4.00;84.30
52963;DHT22;38827;53.024;6.596;2023-02-13T22:16:19;4.00;84.50
52963;DHT22;38827;53.024;6.596;2023-02-13T22:18:55;4.00;84.60
52963;DHT22;38827;53.024;6.596;2023-02-13T22:21:22;4.00;84.70
52963;DHT22;38827;53.024;6.596;2023-02-13T22:24:51;4.00;84.70
52963;DHT22;38827;53.024;6.596;2023-02-13T22:27:37;4.00;84.70
52963;DHT22;38827;53.024;6.596;2023-02-13T22:30:22;4.00;84.50
52963;DHT22;38827;53.024;6.596;2023-02-13T22:36:55;3.80;84.40
52963;DHT22;38827;53.024;6.596;2023-02-13T22:39:38;3.80;84.80
52963;DHT22;38827;53.024;6.596;2023-02-13T22:42:23;3.70;84.80
52963;DHT22;38827;53.024;6.596;2023-02-13T22:51:26;3.60;84.60
52963;DHT22;38827;53.024;6.596;2023-02-13T22:54:00;3.50;84.60
52963;DHT22;38827;53.024;6.596;2023-02-13T22:56:38;3.50;84.50
52963;DHT22;38827;53.024;6.596;2023-02-13T23:03:58;3.30;84.30
52963;DHT22;38827;53.024;6.596;2023-02-13T23:06:33;3.20;84.30
52963;DHT22;38827;53.024;6.596;2023-02-13T23:08:58;3.20;84.50
52963;DHT22;38827;53.024;6.596;2023-02-13T23:11:39;3.10;84.40
52963;DHT22;38827;53.024;6.596;2023-02-13T23:18:22;3.00;84.00
52963;DHT22;38827;53.024;6.596;2023-02-13T23:20:47;2.90;84.30
52963;DHT22;38827;53.024;6.596;2023-02-13T23:23:31;2.80;84.30
52963;DHT22;38827;53.024;6.596;2023-02-13T23:26:15;2.80;84.20
52963;DHT22;38827;53.024;6.596;2023-02-13T23:29:18;2.70;84.00
52963;DHT22;38827;53.024;6.596;2023-02-13T23:31:52;2.70;84.20
52963;DHT22;38827;53.024;6.596;2023-02-13T23:35:12;2.70;84.40
52963;DHT22;38827;53.024;6.596;2023-02-13T23:38:05;2.60;84.10
52963;DHT22;38827;53.024;6.596;2023-02-13T23:40:53;2.60;84.20
52963;DHT22;38827;53.024;6.596;2023-02-13T23:47:38;2.50;84.40
52963;DHT22;38827;53.024;6.596;2023-02-13T23:50:12;2.50;84.00
52963;DHT22;38827;53.024;6.596;2023-02-13T23:55:48;2.40;84.10
